Time;durP1;ratioP1;P1;durP2;ratioP2;P2;SDS_P1;SDS_P2;PMS_P1;PMS_P2;Temp;Humidity;BMP_temperature;BMP_pressure;BME280_temperature;BME280_humidity;BME280_pressure;Samples;Min_cycle;Max_cycle;Signal;HPM_P1;HPM_P2
2022/01/05 00:01:25;;;;;;;1.83;1.73;;;;;;;7.62;91.98;94532.94;6209108;23;20450;-65
2022/01/05 00:03:51;;;;;;;1.77;1.67;;;;;;;7.53;92.26;94550.38;6208859;23;20060;-65
2022/01/05 00:06:16;;;;;;;2.47;1.63;;;;;;;7.48;90.37;94544.78;6208800;23;20440;-64
2022/01/05 00:08:42;;;;;;;1.77;1.63;;;;;;;7.13;91.72;94560.34;6208956;23;20036;-64
2022/01/05 00:11:07;;;;;;;5.15;1.20;;;;;;;6.74;92.50;94577.06;6208760;23;20436;-64
2022/01/05 00:13:33;;;;;;;1.98;1.73;;;;;;;6.59;94.73;94584.59;6208836;23;20005;-64
2022/01/05 00:15:59;;;;;;;2.25;1.45;;;;;;;6.86;92.20;94596.84;6208966;23;20329;-64
2022/01/05 00:18:24;;;;;;;2.72;1.30;;;;;;;6.70;91.26;94612.34;6208958;23;20001;-64
2022/01/05 00:20:50;;;;;;;1.50;1.40;;;;;;;6.37;91.58;94623.19;6208973;23;20391;-64
2022/01/05 00:23:15;;;;;;;1.38;1.38;;;;;;;6.38;91.21;94632.69;6209052;23;20013;-64
2022/01/05 00:25:41;;;;;;;1.00;1.00;;;;;;;6.21;90.78;94636.06;6209115;23;20424;-64
2022/01/05 00:28:06;;;;;;;1.02;1.02;;;;;;;5.97;90.67;94645.94;6208880;23;20015;-63
2022/01/05 00:30:31;;;;;;;3.03;1.52;;;;;;;6.18;89.61;94652.84;6208895;23;20001;-63
2022/01/05 00:32:57;;;;;;;1.20;1.20;;;;;;;6.21;90.88;94677.88;6208481;23;20013;-64
2022/01/05 00:35:22;;;;;;;2.03;1.02;;;;;;;6.21;87.33;94683.91;6209243;23;20019;-64
2022/01/05 00:37:48;;;;;;;1.00;1.00;;;;;;;5.87;87.31;94698.22;6208476;23;20100;-64
2022/01/05 00:40:13;;;;;;;1.20;1.20;;;;;;;5.67;87.59;94707.00;6209009;23;20312;-64
2022/01/05 00:42:38;;;;;;;0.90;0.90;;;;;;;5.46;88.62;94720.97;6209022;23;19997;-64
2022/01/05 00:45:04;;;;;;;1.10;1.10;;;;;;;5.33;90.38;94734.28;6208769;23;20012;-64
2022/01/05 00:47:30;;;;;;;1.00;1.00;;;;;;;5.10;90.71;94739.69;6208808;23;20130;-64
2022/01/05 00:49:55;;;;;;;1.10;1.10;;;;;;;5.24;91.34;94759.38;6208490;23;20040;-64
2022/01/05 00:52:21;;;;;;;1.20;1.20;;;;;;;5.14;92.57;94775.00;6208940;23;20015;-64
2022/01/05 00:54:46;;;;;;;1.00;1.00;;;;;;;5.10;91.86;94797.09;6208435;23;20056;-64
2022/01/05 00:57:12;;;;;;;0.90;0.90;;;;;;;4.94;90.57;94810.63;6208745;23;20005;-64
2022/01/05 00:59:37;;;;;;;1.00;1.00;;;;;;;4.82;91.90;94829.88;6208621;23;20043;-64
2022/01/05 01:02:03;;;;;;;1.15;1.15;;;;;;;4.71;91.42;94841.22;6207132;23;20091;-64
2022/01/05 01:04:28;;;;;;;1.10;0.90;;;;;;;4.67;90.58;94852.84;6208849;22;20571;-63
2022/01/05 01:06:54;;;;;;;0.90;0.90;;;;;;;4.68;87.74;94862.31;6208387;23;20034;-63
2022/01/05 01:09:19;;;;;;;0.80;0.80;;;;;;;4.39;88.98;94884.59;6208676;23;20126;-64
2022/01/05 01:11:44;;;;;;;1.10;1.10;;;;;;;4.36;91.56;94897.06;6208257;23;20005;-63
2022/01/05 01:14:10;;;;;;;1.00;1.00;;;;;;;4.30;92.52;94907.00;6208503;23;20541;-63
2022/01/05 01:16:35;;;;;;;0.95;0.95;;;;;;;4.32;91.18;94919.13;6207588;23;20343;-64
2022/01/05 01:19:01;;;;;;;1.00;1.00;;;;;;;4.31;92.28;94923.47;6209408;23;20352;-63
2022/01/05 01:21:26;;;;;;;0.90;0.90;;;;;;;4.30;93.18;94940.06;6210041;23;20040;-63
2022/01/05 01:23:55;;;;;;;0.98;0.98;;;;;;;4.23;94.28;94951.94;6209782;23;20084;-64
2022/01/05 01:26:25;;;;;;;0.95;0.95;;;;;;;4.12;94.63;94950.19;6209814;23;20032;-64
2022/01/05 01:28:51;;;;;;;1.10;1.10;;;;;;;4.11;94.95;94951.94;6209806;23;20650;-64
2022/01/05 01:31:17;;;;;;;1.10;1.10;;;;;;;4.02;94.50;94960.47;6209730;23;20013;-64
2022/01/05 01:33:43;;;;;;;1.00;1.00;;;;;;;3.92;95.57;94962.97;6209657;23;20325;-64
2022/01/05 01:36:09;;;;;;;0.95;0.93;;;;;;;3.76;95.59;94957.28;6209861;23;20012;-64
2022/01/05 01:38:35;;;;;;;1.10;1.02;;;;;;;3.63;95.77;94953.00;6209188;23;20004;-64
2022/01/05 01:41:00;;;;;;;0.98;0.98;;;;;;;3.54;95.75;94956.31;6232966;23;20500;-64
2022/01/05 01:43:25;;;;;;;1.05;0.93;;;;;;;3.42;95.56;94953.69;6209830;23;20012;-63
2022/01/05 01:45:51;;;;;;;2.15;1.00;;;;;;;3.30;95.92;94952.03;6209628;23;20435;-64
2022/01/05 01:48:17;;;;;;;1.00;1.00;;;;;;;3.15;95.63;94957.44;6209686;23;20009;-63
2022/01/05 01:50:43;;;;;;;1.10;1.10;;;;;;;3.11;96.28;94939.59;6209737;23;20000;-63
2022/01/05 01:53:08;;;;;;;0.98;0.98;;;;;;;3.04;97.17;94938.38;6209299;23;20428;-63
2022/01/05 01:55:35;;;;;;;1.02;0.98;;;;;;;3.15;97.30;94941.00;6209491;23;20024;-63
2022/01/05 01:58:01;;;;;;;1.10;1.10;;;;;;;3.25;96.41;94952.38;6209529;23;20054;-63
2022/01/05 02:00:29;;;;;;;0.90;0.90;;;;;;;3.26;96.30;94956.63;6209654;23;20344;-63
2022/01/05 02:02:55;;;;;;;1.00;1.00;;;;;;;3.21;97.74;94960.53;6208807;23;20005;-63
2022/01/05 02:05:21;;;;;;;1.10;1.10;;;;;;;3.27;96.94;94960.06;6209432;23;20001;-63
2022/01/05 02:07:46;;;;;;;1.00;1.00;;;;;;;3.21;97.78;94961.34;6209563;23;20080;-63
2022/01/05 02:10:11;;;;;;;0.98;0.98;;;;;;;3.17;97.55;94961.69;6209580;23;20126;-64
2022/01/05 02:12:37;;;;;;;1.02;1.02;;;;;;;3.26;97.29;94968.81;6209307;23;20352;-63
2022/01/05 02:15:04;;;;;;;1.30;1.30;;;;;;;3.25;96.40;94957.56;6209961;23;20009;-63
2022/01/05 02:17:48;;;;;;;1.55;1.10;;;;;;;3.31;96.30;94953.69;6209575;23;20004;-63
2022/01/05 02:20:17;;;;;;;1.20;1.20;;;;;;;3.30;96.44;94965.03;6209760;23;19996;-63
2022/01/05 02:22:42;;;;;;;0.90;0.90;;;;;;;3.14;96.44;94968.78;6209625;23;20049;-63
2022/01/05 02:25:08;;;;;;;1.00;1.00;;;;;;;3.02;95.99;94964.50;6209254;23;20008;-63
2022/01/05 02:27:33;;;;;;;1.00;1.00;;;;;;;2.98;98.09;94970.84;6209598;23;20001;-63
2022/01/05 02:29:58;;;;;;;0.90;0.90;;;;;;;3.01;98.81;94970.66;6209235;23;20011;-63
2022/01/05 02:32:24;;;;;;;1.00;1.00;;;;;;;3.04;98.14;94969.56;6209356;23;20386;-63
2022/01/05 02:34:49;;;;;;;2.85;1.17;;;;;;;2.94;97.98;94967.66;6209329;23;20000;-63
2022/01/05 02:37:15;;;;;;;1.00;1.00;;;;;;;2.98;99.57;94970.84;6209026;23;20011;-63
2022/01/05 02:39:40;;;;;;;1.75;1.02;;;;;;;3.01;98.95;94970.66;6209443;23;20019;-63
2022/01/05 02:42:06;;;;;;;1.00;1.00;;;;;;;3.03;98.71;94960.97;6209465;23;20015;-63
2022/01/05 02:44:31;;;;;;;1.10;1.10;;;;;;;2.99;98.16;94952.53;6209550;23;20001;-63
2022/01/05 02:46:57;;;;;;;2.25;1.10;;;;;;;2.98;99.48;94939.66;6209114;23;20008;-63
2022/01/05 02:49:22;;;;;;;1.00;1.00;;;;;;;2.95;98.67;94926.88;6209548;23;20004;-63
2022/01/05 02:51:47;;;;;;;1.17;1.17;;;;;;;2.96;98.92;94925.94;6209547;23;20047;-63
2022/01/05 02:54:13;;;;;;;1.00;1.00;;;;;;;3.01;99.67;94934.25;6209323;23;20007;-63
2022/01/05 02:56:38;;;;;;;0.90;0.90;;;;;;;3.02;98.84;94928.09;6209106;23;20016;-63
2022/01/05 02:59:04;;;;;;;1.10;1.10;;;;;;;3.04;99.12;94921.00;6209005;23;20028;-63
2022/01/05 03:01:29;;;;;;;1.00;1.00;;;;;;;3.00;98.84;94924.78;6209242;23;20083;-63
2022/01/05 03:03:54;;;;;;;1.00;1.00;;;;;;;3.00;99.80;94916.97;6209212;23;20007;-63
2022/01/05 03:06:20;;;;;;;1.00;1.00;;;;;;;2.95;100.00;94929.47;6209505;23;20321;-63
2022/01/05 03:08:45;;;;;;;1.10;1.10;;;;;;;2.89;100.00;94929.94;6209152;23;20004;-63
2022/01/05 03:11:11;;;;;;;1.33;1.23;;;;;;;2.81;100.00;94940.91;6209432;23;20009;-63
2022/01/05 03:13:36;;;;;;;1.65;1.40;;;;;;;2.86;100.00;94943.97;6208810;23;20083;-63
2022/01/05 03:16:01;;;;;;;1.45;1.40;;;;;;;2.93;100.00;94937.41;6209004;23;20335;-63
2022/01/05 03:18:27;;;;;;;1.30;1.30;;;;;;;2.85;100.00;94943.16;6209618;23;20011;-63
2022/01/05 03:20:52;;;;;;;1.50;1.50;;;;;;;2.91;100.00;94954.06;6209281;23;20020;-63
2022/01/05 03:23:18;;;;;;;1.88;1.77;;;;;;;2.96;99.95;94939.78;6207655;23;20044;-63
2022/01/05 03:25:43;;;;;;;2.47;2.28;;;;;;;2.96;100.00;94942.38;6209386;23;20004;-63
2022/01/05 03:28:09;;;;;;;1.30;1.30;;;;;;;2.93;100.00;94942.59;6209042;23;20460;-63
2022/01/05 03:30:35;;;;;;;3.65;1.60;;;;;;;2.92;100.00;94955.72;6209188;23;20481;-63
2022/01/05 03:33:19;;;;;;;2.13;2.03;;;;;;;3.02;99.93;94946.31;6209480;23;20012;-63
2022/01/05 03:35:46;;;;;;;2.15;2.05;;;;;;;3.01;99.71;94939.44;6209449;23;20000;-63
2022/01/05 03:38:15;;;;;;;2.10;2.00;;;;;;;2.95;100.00;94939.88;6209047;23;20050;-63
2022/01/05 03:40:41;;;;;;;2.22;2.03;;;;;;;2.83;100.00;94945.06;6208596;23;20050;-63
2022/01/05 03:43:08;;;;;;;1.30;1.30;;;;;;;2.85;100.00;94937.97;6209158;23;20013;-63
2022/01/05 03:45:35;;;;;;;2.25;1.10;;;;;;;2.88;100.00;94934.31;6209325;23;20386;-63
2022/01/05 03:48:01;;;;;;;1.33;1.33;;;;;;;2.99;100.00;94925.72;6209388;23;20013;-63
2022/01/05 03:50:26;;;;;;;1.40;1.40;;;;;;;3.04;100.00;94918.41;6209130;23;20126;-63
2022/01/05 03:52:52;;;;;;;1.50;1.40;;;;;;;3.07;100.00;94912.97;6208878;23;20011;-63
2022/01/05 03:55:17;;;;;;;1.30;1.30;;;;;;;3.07;100.00;94920.78;6209144;23;20016;-63
2022/01/05 03:57:43;;;;;;;1.67;1.50;;;;;;;2.95;100.00;94926.88;6209205;23;20008;-63
2022/01/05 04:00:09;;;;;;;1.55;1.55;;;;;;;2.89;100.00;94930.78;6208995;23;20035;-63
2022/01/05 04:02:34;;;;;;;2.63;1.40;;;;;;;2.97;100.00;94933.63;6209176;23;20008;-63
2022/01/05 04:04:59;;;;;;;1.38;1.38;;;;;;;3.05;100.00;94927.03;6209092;23;20004;-63
2022/01/05 04:07:25;;;;;;;1.27;1.27;;;;;;;2.99;100.00;94933.53;6209121;23;20122;-63
2022/01/05 04:09:50;;;;;;;1.10;1.10;;;;;;;2.97;100.00;94922.38;6209101;23;20005;-63
2022/01/05 04:12:16;;;;;;;1.38;1.38;;;;;;;2.98;100.00;94924.03;6208938;23;20627;-63
2022/01/05 04:14:42;;;;;;;1.40;1.40;;;;;;;3.01;100.00;94929.84;6209221;23;20083;-63
2022/01/05 04:17:07;;;;;;;1.40;1.30;;;;;;;2.93;100.00;94926.16;6208955;23;20008;-63
2022/01/05 04:19:35;;;;;;;1.35;1.35;;;;;;;2.92;100.00;94917.56;6208948;23;20005;-63
2022/01/05 04:22:00;;;;;;;1.10;1.10;;;;;;;2.91;100.00;94921.09;6208562;23;20009;-63
2022/01/05 04:24:26;;;;;;;1.38;1.13;;;;;;;2.97;100.00;94914.59;6208828;23;20447;-63
2022/01/05 04:26:51;;;;;;;1.42;1.30;;;;;;;2.96;100.00;94912.94;6208697;23;20436;-63
2022/01/05 04:29:17;;;;;;;1.10;1.10;;;;;;;3.00;100.00;94914.38;6208753;23;20011;-63
2022/01/05 04:31:42;;;;;;;1.20;1.20;;;;;;;2.98;100.00;94913.63;6208753;23;20009;-63
2022/01/05 04:34:08;;;;;;;3.22;1.50;;;;;;;3.00;100.00;94914.38;6207165;23;20125;-63
2022/01/05 04:36:33;;;;;;;2.28;1.20;;;;;;;3.28;100.00;94920.91;6209182;23;20073;-63
2022/01/05 04:38:59;;;;;;;1.80;1.70;;;;;;;3.19;100.00;94936.38;6207920;23;20022;-63
2022/01/05 04:41:24;;;;;;;3.25;2.38;;;;;;;3.24;99.95;94939.50;6208790;23;20399;-63
2022/01/05 04:43:49;;;;;;;2.95;2.65;;;;;;;3.11;100.00;94940.41;6208779;23;20054;-63
2022/01/05 04:46:15;;;;;;;3.35;3.15;;;;;;;3.38;99.96;94941.06;6208755;23;20011;-63
2022/01/05 04:48:42;;;;;;;3.60;2.60;;;;;;;3.35;99.64;94936.09;6207322;23;20007;-63
2022/01/05 04:51:07;;;;;;;2.13;2.03;;;;;;;3.17;99.80;94933.06;6208870;23;20009;-63
2022/01/05 04:53:33;;;;;;;2.63;2.42;;;;;;;3.03;100.00;94931.50;6206028;23;20008;-63
2022/01/05 04:55:58;;;;;;;3.90;3.55;;;;;;;3.04;100.00;94928.81;6208480;23;20455;-63
2022/01/05 04:58:23;;;;;;;3.17;2.88;;;;;;;2.93;100.00;94936.56;6208576;23;20007;-64
2022/01/05 05:00:49;;;;;;;2.67;2.30;;;;;;;2.89;100.00;94948.97;6208653;22;20170;-63
2022/01/05 05:03:14;;;;;;;3.05;2.17;;;;;;;2.93;100.00;94939.16;6208189;23;20462;-62
2022/01/05 05:05:40;;;;;;;2.60;2.40;;;;;;;2.94;100.00;94939.06;6206423;23;20000;-62
2022/01/05 05:08:05;;;;;;;2.63;2.42;;;;;;;2.95;100.00;94953.72;6207222;23;20005;-62
2022/01/05 05:10:30;;;;;;;3.05;2.38;;;;;;;2.97;100.00;94958.78;6207285;23;20485;-61
2022/01/05 05:12:56;;;;;;;3.45;2.78;;;;;;;2.93;100.00;94954.78;6206925;23;20023;-62
2022/01/05 05:15:21;;;;;;;5.25;4.03;;;;;;;2.89;100.00;94951.59;6207269;23;20365;-63
2022/01/05 05:17:47;;;;;;;7.03;6.32;;;;;;;2.93;100.00;94942.59;6207144;23;20054;-63
2022/01/05 05:20:12;;;;;;;3.03;2.80;;;;;;;3.08;100.00;94942.41;6207742;23;20029;-62
2022/01/05 05:22:38;;;;;;;2.08;1.98;;;;;;;3.00;100.00;94945.59;6207320;23;20001;-62
2022/01/05 05:25:04;;;;;;;1.80;1.70;;;;;;;3.04;100.00;94944.41;6208396;23;20351;-62
2022/01/05 05:27:29;;;;;;;1.50;1.50;;;;;;;2.98;100.00;94950.91;6208310;23;20005;-62
2022/01/05 05:29:55;;;;;;;1.70;1.70;;;;;;;2.92;100.00;94955.72;6208372;23;20011;-63
2022/01/05 05:32:20;;;;;;;2.00;1.90;;;;;;;2.83;100.00;94952.00;6208380;23;20016;-62
2022/01/05 05:34:45;;;;;;;3.25;2.42;;;;;;;2.84;100.00;94954.50;6208450;23;20005;-62
2022/01/05 05:37:11;;;;;;;3.15;2.63;;;;;;;2.84;100.00;94946.72;6208202;23;20009;-63
2022/01/05 05:39:36;;;;;;;3.20;2.90;;;;;;;2.91;100.00;94948.84;6208233;23;20061;-63
2022/01/05 05:42:02;;;;;;;12.50;10.20;;;;;;;2.95;100.00;94960.69;6208284;23;20009;-62
2022/01/05 05:44:27;;;;;;;12.32;10.60;;;;;;;2.95;100.00;94945.09;6208419;23;20008;-62
2022/01/05 05:46:53;;;;;;;5.57;4.25;;;;;;;2.94;100.00;94951.22;6208035;23;20005;-63
2022/01/05 05:49:18;;;;;;;2.33;2.22;;;;;;;3.01;100.00;94947.25;6208194;23;20448;-62
2022/01/05 05:51:43;;;;;;;2.42;2.33;;;;;;;2.95;100.00;94958.94;6207947;23;20004;-62
2022/01/05 05:54:09;;;;;;;3.75;3.15;;;;;;;2.89;100.00;94961.97;6208190;23;20001;-62
2022/01/05 05:56:34;;;;;;;3.97;3.58;;;;;;;2.92;100.00;94966.97;6207738;23;20020;-62
2022/01/05 05:59:00;;;;;;;2.70;2.50;;;;;;;2.90;100.00;94970.59;6208028;23;20000;-62
2022/01/05 06:01:27;;;;;;;3.58;3.15;;;;;;;2.92;100.00;94966.13;6207989;23;20341;-62
2022/01/05 06:03:52;;;;;;;4.72;4.32;;;;;;;2.95;100.00;94973.69;6208396;23;20004;-62
2022/01/05 06:06:17;;;;;;;4.63;4.32;;;;;;;2.91;100.00;94974.84;6208679;23;20001;-62
2022/01/05 06:08:43;;;;;;;4.07;3.72;;;;;;;2.93;100.00;94973.81;6209533;23;20008;-62
2022/01/05 06:11:08;;;;;;;3.70;3.50;;;;;;;3.04;100.00;94978.22;6209312;23;20084;-62
2022/01/05 06:13:33;;;;;;;3.55;3.35;;;;;;;2.95;100.00;94981.47;6209806;23;20108;-62
2022/01/05 06:15:59;;;;;;;3.10;2.90;;;;;;;3.14;100.00;94980.97;6209653;23;20005;-62
2022/01/05 06:18:24;;;;;;;2.65;2.55;;;;;;;2.98;100.00;94989.91;6209313;23;20001;-62
2022/01/05 06:20:50;;;;;;;2.55;2.40;;;;;;;2.98;100.00;94978.66;6208756;23;20584;-62
2022/01/05 06:23:15;;;;;;;2.42;2.08;;;;;;;2.81;100.00;94974.69;6209619;23;20012;-62
2022/01/05 06:25:40;;;;;;;2.10;2.00;;;;;;;2.85;100.00;94982.16;6209275;23;20107;-62
2022/01/05 06:28:11;;;;;;;2.15;2.05;;;;;;;2.87;100.00;94971.63;6209528;23;20342;-62
2022/01/05 06:30:39;;;;;;;3.63;2.20;;;;;;;2.80;100.00;94975.63;6208869;23;20007;-62
2022/01/05 06:33:05;;;;;;;2.67;2.47;;;;;;;2.75;100.00;94980.34;6209381;23;20062;-62
2022/01/05 06:35:30;;;;;;;2.28;2.17;;;;;;;2.77;100.00;94975.88;6209466;23;20008;-62
2022/01/05 06:37:56;;;;;;;2.25;2.15;;;;;;;2.71;100.00;94972.78;6209592;23;20008;-63
2022/01/05 06:40:22;;;;;;;2.20;2.10;;;;;;;2.68;100.00;94974.75;6209293;23;20054;-62
2022/01/05 06:42:47;;;;;;;2.55;2.45;;;;;;;2.70;100.00;94972.88;6209712;23;20024;-62
2022/01/05 06:45:13;;;;;;;2.67;2.58;;;;;;;2.75;100.00;94981.16;6208519;23;20008;-62
2022/01/05 06:47:38;;;;;;;3.08;2.80;;;;;;;2.75;100.00;94975.97;6209421;23;20004;-62
2022/01/05 06:50:04;;;;;;;3.17;2.97;;;;;;;2.69;100.00;94974.66;6209585;23;20012;-62
2022/01/05 06:52:29;;;;;;;6.30;5.38;;;;;;;2.69;100.00;94960.81;6209205;23;20008;-64
2022/01/05 06:54:55;;;;;;;8.20;7.35;;;;;;;2.77;100.00;94974.13;6209228;23;20020;-63
2022/01/05 06:57:21;;;;;;;6.85;6.15;;;;;;;2.75;100.00;94965.56;6207786;23;20376;-63
2022/01/05 06:59:46;;;;;;;4.47;4.18;;;;;;;2.77;100.00;94970.66;6207434;23;20015;-62
2022/01/05 07:02:12;;;;;;;5.35;4.95;;;;;;;2.74;100.00;94971.72;6206748;23;20013;-63
2022/01/05 07:04:37;;;;;;;4.53;4.20;;;;;;;2.71;100.00;94970.19;6208519;23;19996;-64
2022/01/05 07:07:03;;;;;;;5.50;5.07;;;;;;;2.71;100.00;94975.38;6207864;23;20020;-63
2022/01/05 07:09:28;;;;;;;5.43;5.03;;;;;;;2.69;100.00;94976.41;6208586;23;20005;-64
2022/01/05 07:11:54;;;;;;;4.75;4.43;;;;;;;2.70;100.00;94978.06;6208664;23;20005;-63
2022/01/05 07:14:19;;;;;;;5.13;4.65;;;;;;;2.76;100.00;94977.63;6208457;23;20005;-63
2022/01/05 07:16:45;;;;;;;4.28;3.97;;;;;;;2.81;100.00;94983.34;6208039;23;20071;-64
2022/01/05 07:19:10;;;;;;;3.50;3.30;;;;;;;2.77;100.00;94973.28;6207769;23;20011;-63
2022/01/05 07:21:35;;;;;;;3.17;2.97;;;;;;;2.84;100.00;94985.72;6208408;23;20014;-64
2022/01/05 07:24:02;;;;;;;3.10;2.90;;;;;;;3.04;100.00;94983.44;6208948;23;20036;-65
2022/01/05 07:26:28;;;;;;;2.30;2.20;;;;;;;3.10;99.35;94982.97;6209158;23;20015;-63
2022/01/05 07:28:55;;;;;;;1.50;1.50;;;;;;;3.06;97.48;94976.34;6208874;23;20348;-63
2022/01/05 07:31:21;;;;;;;2.72;1.67;;;;;;;3.07;95.01;94978.00;6207784;23;20004;-63
2022/01/05 07:33:46;;;;;;;1.50;1.50;;;;;;;3.03;93.30;94979.16;6208801;23;20084;-63
2022/01/05 07:36:12;;;;;;;1.50;1.50;;;;;;;3.07;92.29;94984.94;6208344;23;20436;-64
2022/01/05 07:38:38;;;;;;;2.08;1.80;;;;;;;3.11;91.76;94991.59;6207939;23;20051;-63
2022/01/05 07:41:03;;;;;;;2.85;1.80;;;;;;;3.00;92.63;94992.41;6206821;23;20564;-63
2022/01/05 07:43:29;;;;;;;2.17;1.98;;;;;;;3.06;92.68;95001.50;6208279;23;20009;-65
2022/01/05 07:45:54;;;;;;;2.13;2.03;;;;;;;2.95;93.40;94999.69;6208331;23;20001;-64
2022/01/05 07:48:20;;;;;;;2.90;1.67;;;;;;;2.90;88.39;94994.84;6208239;23;20012;-64
2022/01/05 07:50:46;;;;;;;1.60;1.60;;;;;;;2.89;90.10;95013.16;6208585;23;20008;-65
2022/01/05 07:53:11;;;;;;;1.85;1.75;;;;;;;2.90;87.58;94991.41;6207263;23;20352;-64
2022/01/05 07:55:37;;;;;;;1.85;1.75;;;;;;;2.81;86.07;94990.28;6208303;23;20458;-57
2022/01/05 07:58:03;;;;;;;1.98;1.98;;;;;;;2.72;87.00;94997.00;6207993;23;20088;-57
2022/01/05 08:00:28;;;;;;;1.60;1.60;;;;;;;2.69;87.39;95005.84;6205086;23;20435;-56
2022/01/05 08:02:54;;;;;;;2.20;1.95;;;;;;;2.70;87.71;94998.88;6201961;23;20001;-55
2022/01/05 08:05:19;;;;;;;2.10;2.00;;;;;;;2.66;87.24;95005.25;6206565;23;20054;-57
2022/01/05 08:07:45;;;;;;;2.70;2.53;;;;;;;2.74;88.02;95002.09;6207065;23;20001;-57
2022/01/05 08:10:11;;;;;;;4.78;4.28;;;;;;;2.66;87.48;95000.03;6208071;23;20004;-57
2022/01/05 08:12:37;;;;;;;2.22;2.13;;;;;;;2.69;88.17;94994.63;6207928;23;20008;-57
2022/01/05 08:15:02;;;;;;;2.65;2.45;;;;;;;2.72;86.75;95010.81;6208667;23;20356;-56
2022/01/05 08:17:28;;;;;;;3.70;3.40;;;;;;;2.81;88.37;95017.13;6208370;23;20070;-57
2022/01/05 08:19:53;;;;;;;9.05;7.68;;;;;;;2.64;88.54;95020.13;6208552;23;20016;-58
2022/01/05 08:22:19;;;;;;;4.28;3.97;;;;;;;2.70;88.49;95017.91;6205993;23;20019;-56
2022/01/05 08:24:44;;;;;;;4.32;4.00;;;;;;;2.66;87.48;95021.69;6206885;23;20001;-56
2022/01/05 08:27:09;;;;;;;3.53;2.72;;;;;;;2.66;88.38;95028.63;6206804;23;20005;-57
2022/01/05 08:29:35;;;;;;;2.25;2.15;;;;;;;2.70;87.91;95028.31;6207597;23;20076;-58
2022/01/05 08:32:02;;;;;;;2.45;2.35;;;;;;;2.62;87.76;95033.22;6202855;23;20008;-56
2022/01/05 08:34:31;;;;;;;2.15;2.05;;;;;;;2.64;87.85;95023.53;6206547;23;20495;-59
2022/01/05 08:36:57;;;;;;;2.10;2.00;;;;;;;2.74;88.30;95022.88;6207110;23;20101;-56
2022/01/05 08:39:23;;;;;;;1.90;1.80;;;;;;;2.73;86.76;95037.63;6205792;23;20011;-59
2022/01/05 08:41:50;;;;;;;1.80;1.80;;;;;;;2.69;86.81;95031.00;6207302;23;20104;-58
2022/01/05 08:44:15;;;;;;;2.53;2.42;;;;;;;2.75;88.16;95034.94;6207079;23;20000;-58
2022/01/05 08:46:41;;;;;;;1.80;1.80;;;;;;;2.88;87.48;95048.72;6207489;23;20001;-57
2022/01/05 08:49:06;;;;;;;3.33;3.10;;;;;;;2.81;88.57;95047.50;6207255;23;20032;-58
2022/01/05 08:51:32;;;;;;;4.07;3.67;;;;;;;2.83;88.58;95036.06;6207566;23;20390;-59
2022/01/05 08:53:58;;;;;;;2.10;2.00;;;;;;;2.80;87.93;95038.03;6206665;23;20008;-58
2022/01/05 08:56:25;;;;;;;1.60;1.60;;;;;;;2.70;87.91;95040.47;6206504;23;20016;-58
2022/01/05 08:58:51;;;;;;;1.45;1.45;;;;;;;2.63;87.20;95045.25;6207021;23;20005;-57
2022/01/05 09:01:16;;;;;;;2.70;1.73;;;;;;;2.98;86.10;95043.66;6207761;23;20066;-57
2022/01/05 09:03:42;;;;;;;1.40;1.40;;;;;;;3.03;85.42;95051.16;6207429;23;20330;-58
2022/01/05 09:06:07;;;;;;;1.50;1.50;;;;;;;2.91;86.26;95045.06;6208006;23;20035;-58
2022/01/05 09:08:34;;;;;;;1.60;1.50;;;;;;;2.80;87.18;95058.84;6207821;23;20420;-57
2022/01/05 09:10:59;;;;;;;1.73;1.73;;;;;;;2.77;87.48;95059.91;6206233;23;20054;-57
2022/01/05 09:13:24;;;;;;;2.00;1.90;;;;;;;2.71;89.56;95058.56;6205697;23;20017;-58
2022/01/05 09:15:50;;;;;;;1.23;1.23;;;;;;;2.65;87.26;95058.16;6204691;23;20005;-57
2022/01/05 09:18:15;;;;;;;1.30;1.30;;;;;;;2.64;86.02;95059.09;6206410;23;20007;-57
2022/01/05 09:20:41;;;;;;;1.70;1.60;;;;;;;2.55;88.16;95057.97;6205808;23;20071;-57
2022/01/05 09:23:07;;;;;;;1.67;1.60;;;;;;;2.61;87.33;95061.91;6206997;23;20382;-58
2022/01/05 09:25:32;;;;;;;1.35;1.35;;;;;;;2.62;87.67;95060.97;6205995;23;20054;-56
2022/01/05 09:27:57;;;;;;;1.50;1.50;;;;;;;2.66;87.64;95065.03;6207464;23;20256;-56
2022/01/05 09:30:23;;;;;;;1.38;1.38;;;;;;;2.56;86.32;95068.28;6207045;23;20005;-58
2022/01/05 09:32:49;;;;;;;1.80;1.70;;;;;;;2.70;86.97;95062.09;6206561;23;20017;-57
2022/01/05 09:35:18;;;;;;;1.40;1.40;;;;;;;2.66;87.07;95063.25;6206686;23;20053;-57
2022/01/05 09:38:24;;;;;;;1.98;1.70;;;;;;;2.52;86.32;95068.59;6205565;23;20005;-58
2022/01/05 09:43:21;;;;;;;1.70;1.63;;;;;;;2.69;88.45;95081.25;6208404;23;20012;-56
2022/01/05 09:45:58;;;;;;;1.40;1.40;;;;;;;2.83;86.05;95089.81;6207715;23;20012;-56
2022/01/05 09:48:58;;;;;;;1.67;1.67;;;;;;;2.75;86.08;95082.56;6208268;23;20008;-56
2022/01/05 09:51:30;;;;;;;1.58;1.48;;;;;;;2.60;83.75;95083.66;6207993;23;20016;-57
2022/01/05 09:53:56;;;;;;;1.75;1.70;;;;;;;2.54;85.38;95085.75;6208324;23;20027;-56
2022/01/05 09:56:21;;;;;;;2.10;2.00;;;;;;;2.67;83.45;95074.47;6207864;23;20027;-57
2022/01/05 09:58:47;;;;;;;1.55;1.55;;;;;;;2.54;83.58;95080.56;6207905;23;20009;-56
2022/01/05 10:01:12;;;;;;;1.80;1.70;;;;;;;2.49;83.76;95079.22;6208518;23;20009;-58
2022/01/05 10:03:38;;;;;;;2.38;2.17;;;;;;;2.42;84.72;95095.22;6207544;23;20015;-57
2022/01/05 10:06:03;;;;;;;1.90;1.80;;;;;;;2.50;84.70;95093.88;6207911;23;20058;-58
2022/01/05 10:08:28;;;;;;;1.52;1.52;;;;;;;2.39;85.15;95076.41;6208086;23;20039;-58
2022/01/05 10:10:54;;;;;;;1.73;1.60;;;;;;;2.69;83.68;95086.44;6208226;23;20084;-61
2022/01/05 10:13:19;;;;;;;1.52;1.52;;;;;;;2.56;83.62;95099.47;6208020;23;20009;-61
2022/01/05 10:15:45;;;;;;;2.13;1.92;;;;;;;2.39;84.10;95105.81;6208043;23;20024;-62
2022/01/05 10:18:19;;;;;;;2.13;2.00;;;;;;;2.60;82.07;95096.66;6208468;23;20040;-61
2022/01/05 10:21:02;;;;;;;1.85;1.75;;;;;;;2.48;82.57;95104.34;6206204;23;20083;-62
2022/01/05 10:23:36;;;;;;;1.77;1.70;;;;;;;2.59;83.79;95111.41;6206500;23;20062;-61
2022/01/05 10:26:23;;;;;;;2.33;2.20;;;;;;;2.57;84.33;95108.94;6208382;23;20021;-62
2022/01/05 10:28:49;;;;;;;2.75;2.55;;;;;;;2.43;84.83;95099.50;6208339;23;20005;-62
2022/01/05 10:31:16;;;;;;;2.45;1.85;;;;;;;2.64;82.28;95108.47;6207677;23;20005;-62
2022/01/05 10:33:41;;;;;;;2.58;2.30;;;;;;;2.39;85.09;95110.19;6208278;23;20074;-62
2022/01/05 10:36:07;;;;;;;2.60;2.40;;;;;;;2.35;84.90;95116.53;6208848;23;20374;-61
2022/01/05 10:38:32;;;;;;;2.83;2.45;;;;;;;2.36;85.05;95137.22;6208260;23;20004;-62
2022/01/05 10:40:58;;;;;;;3.78;3.22;;;;;;;2.29;86.67;95133.38;6208480;23;20000;-61
2022/01/05 10:43:23;;;;;;;3.30;2.40;;;;;;;2.10;84.35;95126.00;6208356;23;20009;-61
2022/01/05 10:45:53;;;;;;;5.43;3.90;;;;;;;2.26;86.08;95144.78;6208081;23;20118;-62
2022/01/05 10:48:22;;;;;;;4.15;3.83;;;;;;;2.21;86.94;95148.63;6208680;23;20090;-61
2022/01/05 10:51:00;;;;;;;2.20;2.10;;;;;;;2.07;86.33;95136.59;6207898;23;20008;-61
2022/01/05 10:53:26;;;;;;;3.63;3.30;;;;;;;1.70;87.71;95132.94;6208318;23;20062;-61
2022/01/05 10:55:51;;;;;;;5.07;2.60;;;;;;;1.90;86.69;95143.75;6207161;23;20028;-61
2022/01/05 10:58:18;;;;;;;1.45;1.45;;;;;;;1.95;83.36;95154.66;6206316;23;20009;-61
2022/01/05 11:00:45;;;;;;;2.00;1.90;;;;;;;1.72;85.36;95150.97;6206081;23;19996;-61
2022/01/05 11:03:42;;;;;;;1.90;1.80;;;;;;;1.65;85.01;95158.34;6206666;23;20000;-60
2022/01/05 11:06:15;;;;;;;2.40;2.20;;;;;;;1.61;84.47;95148.28;6203900;22;20084;-61
2022/01/05 11:08:49;;;;;;;3.38;2.10;;;;;;;1.50;85.57;95148.97;6205748;23;20051;-61
2022/01/05 11:11:35;;;;;;;2.88;2.53;;;;;;;1.49;84.39;95168.06;6205291;23;20009;-62
2022/01/05 11:14:02;;;;;;;1.80;1.70;;;;;;;1.70;83.19;95163.22;6205734;23;20679;-61
2022/01/05 11:16:28;;;;;;;3.78;2.83;;;;;;;1.69;83.36;95162.41;6205558;23;20032;-60
2022/01/05 11:19:23;;;;;;;3.05;2.30;;;;;;;1.69;81.60;95159.81;6205864;23;20032;-59
2022/01/05 11:22:04;;;;;;;2.58;2.38;;;;;;;1.58;81.14;95180.44;6207170;23;20015;-60
2022/01/05 11:24:38;;;;;;;2.20;2.00;;;;;;;1.73;79.94;95170.00;6206405;23;20032;-60
2022/01/05 11:27:04;;;;;;;2.20;2.10;;;;;;;1.74;80.55;95172.47;6207100;23;20001;-60
2022/01/05 11:29:30;;;;;;;2.30;1.90;;;;;;;1.62;79.69;95157.72;6206605;23;20001;-60
2022/01/05 11:31:57;;;;;;;1.98;1.88;;;;;;;1.58;81.25;95170.06;6206664;23;20005;-60
2022/01/05 11:34:23;;;;;;;3.47;1.90;;;;;;;1.61;82.79;95156.06;6206377;23;20011;-60
2022/01/05 11:36:49;;;;;;;1.95;1.85;;;;;;;1.64;81.05;95146.28;6207210;23;20325;-60
2022/01/05 11:39:14;;;;;;;2.67;2.10;;;;;;;1.74;81.17;95156.09;6207328;23;20007;-60